Terminal Aerodrome Forecast
Issued by NWS

Home | Current Version | Previous Version | Text Only | Print | Product List | Glossary On
Versions: 1 2 3 4 5 6 7 8 9 10 11 12 13 14
000
FTUS45 KTFX 281700
TAFHVR
TAF
KHVR 281730Z 2818/2918 26030G42KT P6SM BKN060
      TEMPO 2900/2904 -SHRA
     FM290600 28010KT P6SM BKN080
     FM291500 24015G25KT P6SM BKN140=

USA.gov is the U.S. government's official web portal to all federal, state and local government web resources and services.